sensor_id;sensor_type;location;lat;lon;timestamp;P1;durP1;ratioP1;P2;durP2;ratioP2
60867;SDS011;46702;48.370;10.794;2023-03-23T00:01:48;6.65;;;3.47;;
60867;SDS011;46702;48.370;10.794;2023-03-23T00:04:16;5.05;;;3.00;;
60867;SDS011;46702;48.370;10.794;2023-03-23T00:06:42;5.60;;;3.45;;
60867;SDS011;46702;48.370;10.794;2023-03-23T00:09:10;5.82;;;2.90;;
60867;SDS011;46702;48.370;10.794;2023-03-23T00:11:40;5.18;;;3.13;;
60867;SDS011;46702;48.370;10.794;2023-03-23T00:14:06;5.10;;;3.42;;
60867;SDS011;46702;48.370;10.794;2023-03-23T00:16:38;8.43;;;3.50;;
60867;SDS011;46702;48.370;10.794;2023-03-23T00:19:15;3.63;;;2.90;;
60867;SDS011;46702;48.370;10.794;2023-03-23T00:21:41;4.95;;;3.33;;
60867;SDS011;46702;48.370;10.794;2023-03-23T00:24:14;2.72;;;2.50;;
60867;SDS011;46702;48.370;10.794;2023-03-23T00:26:41;7.28;;;2.90;;
60867;SDS011;46702;48.370;10.794;2023-03-23T00:29:15;5.13;;;2.88;;
60867;SDS011;46702;48.370;10.794;2023-03-23T00:31:44;4.28;;;2.70;;
60867;SDS011;46702;48.370;10.794;2023-03-23T00:34:17;3.60;;;2.75;;
60867;SDS011;46702;48.370;10.794;2023-03-23T00:36:49;4.82;;;3.20;;
60867;SDS011;46702;48.370;10.794;2023-03-23T00:39:16;2.85;;;2.53;;
60867;SDS011;46702;48.370;10.794;2023-03-23T00:41:43;3.70;;;3.22;;
60867;SDS011;46702;48.370;10.794;2023-03-23T00:44:09;4.72;;;3.30;;
60867;SDS011;46702;48.370;10.794;2023-03-23T00:46:41;4.40;;;2.92;;
60867;SDS011;46702;48.370;10.794;2023-03-23T00:49:14;4.07;;;2.90;;
60867;SDS011;46702;48.370;10.794;2023-03-23T00:51:42;4.50;;;3.03;;
60867;SDS011;46702;48.370;10.794;2023-03-23T00:54:08;4.65;;;2.63;;
60867;SDS011;46702;48.370;10.794;2023-03-23T00:56:35;2.85;;;2.55;;
60867;SDS011;46702;48.370;10.794;2023-03-23T00:59:01;4.60;;;2.80;;
60867;SDS011;46702;48.370;10.794;2023-03-23T01:01:28;3.75;;;2.40;;
60867;SDS011;46702;48.370;10.794;2023-03-23T01:03:53;5.10;;;2.80;;
60867;SDS011;46702;48.370;10.794;2023-03-23T01:06:26;8.45;;;2.72;;
60867;SDS011;46702;48.370;10.794;2023-03-23T01:08:56;3.92;;;2.70;;
60867;SDS011;46702;48.370;10.794;2023-03-23T01:11:22;4.22;;;3.13;;
60867;SDS011;46702;48.370;10.794;2023-03-23T01:13:49;5.47;;;3.08;;
60867;SDS011;46702;48.370;10.794;2023-03-23T01:16:15;7.63;;;3.00;;
60867;SDS011;46702;48.370;10.794;2023-03-23T01:18:41;3.53;;;2.85;;
60867;SDS011;46702;48.370;10.794;2023-03-23T01:21:10;3.25;;;2.90;;
60867;SDS011;46702;48.370;10.794;2023-03-23T01:23:37;3.67;;;2.80;;
60867;SDS011;46702;48.370;10.794;2023-03-23T01:26:05;4.43;;;2.65;;
60867;SDS011;46702;48.370;10.794;2023-03-23T01:28:32;5.45;;;2.95;;
60867;SDS011;46702;48.370;10.794;2023-03-23T01:31:00;3.55;;;2.55;;
60867;SDS011;46702;48.370;10.794;2023-03-23T01:33:28;5.22;;;2.80;;
60867;SDS011;46702;48.370;10.794;2023-03-23T01:35:53;4.50;;;2.83;;
60867;SDS011;46702;48.370;10.794;2023-03-23T01:38:19;5.72;;;2.80;;
60867;SDS011;46702;48.370;10.794;2023-03-23T01:40:46;4.70;;;2.70;;
60867;SDS011;46702;48.370;10.794;2023-03-23T01:43:13;3.70;;;3.00;;
60867;SDS011;46702;48.370;10.794;2023-03-23T01:45:39;5.93;;;2.87;;
60867;SDS011;46702;48.370;10.794;2023-03-23T01:48:16;3.85;;;3.05;;
60867;SDS011;46702;48.370;10.794;2023-03-23T01:50:50;3.58;;;2.97;;
60867;SDS011;46702;48.370;10.794;2023-03-23T01:53:22;4.45;;;2.65;;
60867;SDS011;46702;48.370;10.794;2023-03-23T01:55:53;2.85;;;2.55;;
60867;SDS011;46702;48.370;10.794;2023-03-23T01:58:21;3.90;;;2.72;;
60867;SDS011;46702;48.370;10.794;2023-03-23T02:00:52;4.80;;;3.05;;
60867;SDS011;46702;48.370;10.794;2023-03-23T02:03:20;4.18;;;2.83;;
60867;SDS011;46702;48.370;10.794;2023-03-23T02:05:48;4.70;;;3.17;;
60867;SDS011;46702;48.370;10.794;2023-03-23T02:08:14;3.80;;;3.17;;
60867;SDS011;46702;48.370;10.794;2023-03-23T02:10:43;3.95;;;2.50;;
60867;SDS011;46702;48.370;10.794;2023-03-23T02:13:09;3.92;;;2.25;;
60867;SDS011;46702;48.370;10.794;2023-03-23T02:28:28;3.42;;;2.80;;
60867;SDS011;46702;48.370;10.794;2023-03-23T02:31:05;4.97;;;2.90;;
60867;SDS011;46702;48.370;10.794;2023-03-23T02:33:55;3.30;;;3.05;;
60867;SDS011;46702;48.370;10.794;2023-03-23T02:39:17;3.45;;;2.60;;
60867;SDS011;46702;48.370;10.794;2023-03-23T02:41:54;3.08;;;2.78;;
60867;SDS011;46702;48.370;10.794;2023-03-23T02:44:30;4.53;;;2.80;;
60867;SDS011;46702;48.370;10.794;2023-03-23T02:46:59;3.43;;;2.97;;
60867;SDS011;46702;48.370;10.794;2023-03-23T02:49:27;3.28;;;2.38;;
60867;SDS011;46702;48.370;10.794;2023-03-23T02:51:56;3.25;;;2.67;;
60867;SDS011;46702;48.370;10.794;2023-03-23T02:54:24;3.03;;;2.58;;
60867;SDS011;46702;48.370;10.794;2023-03-23T02:56:52;3.10;;;2.53;;
60867;SDS011;46702;48.370;10.794;2023-03-23T02:59:19;4.50;;;2.65;;
60867;SDS011;46702;48.370;10.794;2023-03-23T03:01:47;4.03;;;2.80;;
60867;SDS011;46702;48.370;10.794;2023-03-23T03:04:17;4.85;;;2.70;;
60867;SDS011;46702;48.370;10.794;2023-03-23T03:09:20;3.15;;;2.30;;
60867;SDS011;46702;48.370;10.794;2023-03-23T03:11:56;3.83;;;2.80;;
60867;SDS011;46702;48.370;10.794;2023-03-23T03:14:30;4.55;;;2.40;;
60867;SDS011;46702;48.370;10.794;2023-03-23T03:20:04;4.50;;;2.65;;
60867;SDS011;46702;48.370;10.794;2023-03-23T03:22:35;4.75;;;2.50;;
60867;SDS011;46702;48.370;10.794;2023-03-23T03:25:04;5.03;;;2.47;;
60867;SDS011;46702;48.370;10.794;2023-03-23T03:27:31;5.40;;;3.70;;
60867;SDS011;46702;48.370;10.794;2023-03-23T03:29:58;5.55;;;2.97;;
60867;SDS011;46702;48.370;10.794;2023-03-23T03:32:35;7.20;;;2.97;;
60867;SDS011;46702;48.370;10.794;2023-03-23T03:35:05;4.82;;;3.10;;
60867;SDS011;46702;48.370;10.794;2023-03-23T03:37:34;4.68;;;2.83;;
60867;SDS011;46702;48.370;10.794;2023-03-23T03:40:15;4.03;;;2.97;;
60867;SDS011;46702;48.370;10.794;2023-03-23T03:42:43;4.25;;;2.90;;
60867;SDS011;46702;48.370;10.794;2023-03-23T03:45:11;6.70;;;3.42;;
60867;SDS011;46702;48.370;10.794;2023-03-23T03:47:42;3.50;;;3.05;;
60867;SDS011;46702;48.370;10.794;2023-03-23T03:50:08;4.38;;;3.35;;
60867;SDS011;46702;48.370;10.794;2023-03-23T03:52:34;6.85;;;3.50;;
60867;SDS011;46702;48.370;10.794;2023-03-23T03:55:01;5.43;;;3.15;;
60867;SDS011;46702;48.370;10.794;2023-03-23T03:57:27;5.82;;;3.15;;
60867;SDS011;46702;48.370;10.794;2023-03-23T03:59:53;4.45;;;2.63;;
60867;SDS011;46702;48.370;10.794;2023-03-23T04:02:18;5.45;;;3.40;;
60867;SDS011;46702;48.370;10.794;2023-03-23T04:04:47;3.83;;;2.85;;
60867;SDS011;46702;48.370;10.794;2023-03-23T04:07:14;4.60;;;3.60;;
60867;SDS011;46702;48.370;10.794;2023-03-23T04:09:41;4.45;;;3.28;;
60867;SDS011;46702;48.370;10.794;2023-03-23T04:12:08;6.03;;;3.40;;
60867;SDS011;46702;48.370;10.794;2023-03-23T04:14:34;4.78;;;3.35;;
60867;SDS011;46702;48.370;10.794;2023-03-23T04:17:00;3.50;;;3.05;;
60867;SDS011;46702;48.370;10.794;2023-03-23T04:19:25;6.05;;;3.15;;
60867;SDS011;46702;48.370;10.794;2023-03-23T04:21:53;3.78;;;3.35;;
60867;SDS011;46702;48.370;10.794;2023-03-23T04:24:20;6.05;;;3.72;;
60867;SDS011;46702;48.370;10.794;2023-03-23T04:26:46;4.18;;;3.00;;
60867;SDS011;46702;48.370;10.794;2023-03-23T04:29:12;4.45;;;3.38;;
60867;SDS011;46702;48.370;10.794;2023-03-23T04:31:38;5.00;;;3.03;;
60867;SDS011;46702;48.370;10.794;2023-03-23T04:34:05;4.47;;;3.13;;
60867;SDS011;46702;48.370;10.794;2023-03-23T04:36:31;4.70;;;3.47;;
60867;SDS011;46702;48.370;10.794;2023-03-23T04:38:59;5.13;;;3.33;;
60867;SDS011;46702;48.370;10.794;2023-03-23T04:41:25;5.38;;;3.20;;
60867;SDS011;46702;48.370;10.794;2023-03-23T04:43:51;5.47;;;3.65;;
60867;SDS011;46702;48.370;10.794;2023-03-23T04:46:19;4.68;;;3.50;;
60867;SDS011;46702;48.370;10.794;2023-03-23T04:48:46;4.85;;;3.20;;
60867;SDS011;46702;48.370;10.794;2023-03-23T04:51:12;4.68;;;3.05;;
60867;SDS011;46702;48.370;10.794;2023-03-23T04:53:38;6.05;;;3.20;;
60867;SDS011;46702;48.370;10.794;2023-03-23T04:56:04;6.63;;;3.28;;
60867;SDS011;46702;48.370;10.794;2023-03-23T04:58:30;4.70;;;3.40;;
60867;SDS011;46702;48.370;10.794;2023-03-23T05:00:59;6.18;;;3.53;;
60867;SDS011;46702;48.370;10.794;2023-03-23T05:03:25;5.70;;;3.45;;
60867;SDS011;46702;48.370;10.794;2023-03-23T05:05:52;5.13;;;3.72;;
60867;SDS011;46702;48.370;10.794;2023-03-23T05:08:21;4.80;;;3.40;;
60867;SDS011;46702;48.370;10.794;2023-03-23T05:10:51;4.72;;;3.55;;
60867;SDS011;46702;48.370;10.794;2023-03-23T05:13:20;4.93;;;3.78;;
60867;SDS011;46702;48.370;10.794;2023-03-23T05:15:46;4.13;;;3.20;;
60867;SDS011;46702;48.370;10.794;2023-03-23T05:18:12;4.47;;;3.30;;
60867;SDS011;46702;48.370;10.794;2023-03-23T05:20:38;4.28;;;2.70;;
60867;SDS011;46702;48.370;10.794;2023-03-23T05:23:04;6.13;;;3.22;;
60867;SDS011;46702;48.370;10.794;2023-03-23T05:25:30;5.15;;;3.50;;
60867;SDS011;46702;48.370;10.794;2023-03-23T05:27:57;5.40;;;3.38;;
60867;SDS011;46702;48.370;10.794;2023-03-23T05:30:24;4.10;;;3.10;;
60867;SDS011;46702;48.370;10.794;2023-03-23T05:32:50;3.67;;;2.90;;
60867;SDS011;46702;48.370;10.794;2023-03-23T05:35:16;5.50;;;3.28;;
60867;SDS011;46702;48.370;10.794;2023-03-23T05:37:42;5.25;;;2.70;;
60867;SDS011;46702;48.370;10.794;2023-03-23T05:40:09;4.60;;;2.92;;
60867;SDS011;46702;48.370;10.794;2023-03-23T05:42:37;3.90;;;3.17;;
60867;SDS011;46702;48.370;10.794;2023-03-23T05:45:06;3.65;;;2.95;;
60867;SDS011;46702;48.370;10.794;2023-03-23T05:47:33;4.75;;;3.00;;
60867;SDS011;46702;48.370;10.794;2023-03-23T05:49:59;5.22;;;2.42;;
60867;SDS011;46702;48.370;10.794;2023-03-23T05:52:26;3.28;;;2.70;;
60867;SDS011;46702;48.370;10.794;2023-03-23T05:54:52;3.35;;;2.60;;
60867;SDS011;46702;48.370;10.794;2023-03-23T05:57:18;6.18;;;3.45;;
60867;SDS011;46702;48.370;10.794;2023-03-23T05:59:47;4.05;;;2.47;;
60867;SDS011;46702;48.370;10.794;2023-03-23T06:02:13;4.43;;;3.20;;
60867;SDS011;46702;48.370;10.794;2023-03-23T06:04:39;5.72;;;3.03;;
60867;SDS011;46702;48.370;10.794;2023-03-23T06:07:06;6.63;;;3.03;;
60867;SDS011;46702;48.370;10.794;2023-03-23T06:09:32;3.85;;;2.90;;
60867;SDS011;46702;48.370;10.794;2023-03-23T06:11:59;4.93;;;3.10;;
60867;SDS011;46702;48.370;10.794;2023-03-23T06:14:24;5.82;;;2.88;;
60867;SDS011;46702;48.370;10.794;2023-03-23T06:16:51;4.97;;;2.58;;
60867;SDS011;46702;48.370;10.794;2023-03-23T06:19:16;4.70;;;3.03;;
60867;SDS011;46702;48.370;10.794;2023-03-23T06:21:42;7.13;;;2.92;;
60867;SDS011;46702;48.370;10.794;2023-03-23T06:24:08;4.05;;;3.00;;
60867;SDS011;46702;48.370;10.794;2023-03-23T06:26:36;4.45;;;3.20;;
60867;SDS011;46702;48.370;10.794;2023-03-23T06:29:03;4.10;;;2.85;;
60867;SDS011;46702;48.370;10.794;2023-03-23T06:31:37;3.95;;;3.00;;
60867;SDS011;46702;48.370;10.794;2023-03-23T06:34:05;4.60;;;2.65;;
60867;SDS011;46702;48.370;10.794;2023-03-23T06:36:31;3.20;;;2.63;;
60867;SDS011;46702;48.370;10.794;2023-03-23T06:38:57;5.93;;;3.35;;
60867;SDS011;46702;48.370;10.794;2023-03-23T06:41:22;4.47;;;3.10;;
60867;SDS011;46702;48.370;10.794;2023-03-23T06:43:48;3.83;;;2.92;;
60867;SDS011;46702;48.370;10.794;2023-03-23T06:46:13;3.40;;;2.47;;
60867;SDS011;46702;48.370;10.794;2023-03-23T06:48:39;3.72;;;2.90;;
60867;SDS011;46702;48.370;10.794;2023-03-23T06:51:05;3.55;;;3.03;;
60867;SDS011;46702;48.370;10.794;2023-03-23T06:53:30;5.10;;;3.45;;
60867;SDS011;46702;48.370;10.794;2023-03-23T06:55:56;5.13;;;2.97;;
60867;SDS011;46702;48.370;10.794;2023-03-23T06:58:22;4.68;;;2.80;;
60867;SDS011;46702;48.370;10.794;2023-03-23T07:00:52;4.45;;;2.80;;
60867;SDS011;46702;48.370;10.794;2023-03-23T07:03:20;5.38;;;2.70;;
60867;SDS011;46702;48.370;10.794;2023-03-23T07:05:46;3.72;;;2.85;;
60867;SDS011;46702;48.370;10.794;2023-03-23T07:08:12;4.85;;;3.28;;
60867;SDS011;46702;48.370;10.794;2023-03-23T07:10:38;4.68;;;3.30;;
60867;SDS011;46702;48.370;10.794;2023-03-23T07:13:04;3.67;;;2.80;;
60867;SDS011;46702;48.370;10.794;2023-03-23T07:15:29;5.78;;;2.90;;
60867;SDS011;46702;48.370;10.794;2023-03-23T07:17:55;3.38;;;2.78;;
60867;SDS011;46702;48.370;10.794;2023-03-23T07:20:21;4.57;;;2.72;;
60867;SDS011;46702;48.370;10.794;2023-03-23T07:22:47;4.47;;;3.08;;
60867;SDS011;46702;48.370;10.794;2023-03-23T07:25:12;5.47;;;3.42;;
60867;SDS011;46702;48.370;10.794;2023-03-23T07:27:38;5.38;;;3.20;;
60867;SDS011;46702;48.370;10.794;2023-03-23T07:30:04;3.88;;;2.80;;
60867;SDS011;46702;48.370;10.794;2023-03-23T07:32:30;6.47;;;3.13;;
60867;SDS011;46702;48.370;10.794;2023-03-23T07:34:56;3.15;;;2.63;;
60867;SDS011;46702;48.370;10.794;2023-03-23T07:37:21;2.65;;;2.22;;
60867;SDS011;46702;48.370;10.794;2023-03-23T07:39:47;4.28;;;2.83;;
60867;SDS011;46702;48.370;10.794;2023-03-23T07:42:13;5.93;;;2.97;;
60867;SDS011;46702;48.370;10.794;2023-03-23T07:44:39;4.15;;;2.60;;
60867;SDS011;46702;48.370;10.794;2023-03-23T07:47:04;4.72;;;2.97;;
60867;SDS011;46702;48.370;10.794;2023-03-23T07:49:30;4.07;;;2.60;;
60867;SDS011;46702;48.370;10.794;2023-03-23T07:51:56;6.53;;;4.10;;
60867;SDS011;46702;48.370;10.794;2023-03-23T07:54:22;3.10;;;2.60;;
60867;SDS011;46702;48.370;10.794;2023-03-23T07:56:48;3.13;;;2.38;;
60867;SDS011;46702;48.370;10.794;2023-03-23T07:59:14;5.55;;;3.13;;
60867;SDS011;46702;48.370;10.794;2023-03-23T08:01:40;4.88;;;2.70;;
60867;SDS011;46702;48.370;10.794;2023-03-23T08:04:06;3.55;;;3.00;;
60867;SDS011;46702;48.370;10.794;2023-03-23T08:06:32;3.25;;;2.47;;
60867;SDS011;46702;48.370;10.794;2023-03-23T08:08:59;3.20;;;2.67;;
60867;SDS011;46702;48.370;10.794;2023-03-23T08:11:25;3.75;;;2.35;;
60867;SDS011;46702;48.370;10.794;2023-03-23T08:13:51;4.10;;;2.35;;
60867;SDS011;46702;48.370;10.794;2023-03-23T08:16:17;3.72;;;2.40;;
60867;SDS011;46702;48.370;10.794;2023-03-23T08:18:44;3.10;;;2.50;;
60867;SDS011;46702;48.370;10.794;2023-03-23T08:21:11;3.33;;;2.22;;
60867;SDS011;46702;48.370;10.794;2023-03-23T08:23:38;3.05;;;2.28;;
60867;SDS011;46702;48.370;10.794;2023-03-23T08:26:04;5.72;;;2.30;;
60867;SDS011;46702;48.370;10.794;2023-03-23T08:28:36;3.55;;;2.25;;
60867;SDS011;46702;48.370;10.794;2023-03-23T08:31:09;3.65;;;2.33;;
60867;SDS011;46702;48.370;10.794;2023-03-23T08:33:36;3.60;;;2.33;;
60867;SDS011;46702;48.370;10.794;2023-03-23T08:36:02;3.40;;;2.20;;
60867;SDS011;46702;48.370;10.794;2023-03-23T08:38:29;3.63;;;2.00;;
60867;SDS011;46702;48.370;10.794;2023-03-23T08:40:59;3.30;;;2.00;;
60867;SDS011;46702;48.370;10.794;2023-03-23T08:43:27;3.97;;;1.90;;
60867;SDS011;46702;48.370;10.794;2023-03-23T08:45:53;1.55;;;1.40;;
60867;SDS011;46702;48.370;10.794;2023-03-23T08:48:20;2.72;;;1.58;;
60867;SDS011;46702;48.370;10.794;2023-03-23T08:50:47;1.92;;;1.55;;
60867;SDS011;46702;48.370;10.794;2023-03-23T08:53:13;1.60;;;1.50;;
60867;SDS011;46702;48.370;10.794;2023-03-23T08:55:39;2.97;;;1.70;;
60867;SDS011;46702;48.370;10.794;2023-03-23T08:58:05;3.13;;;1.70;;
60867;SDS011;46702;48.370;10.794;2023-03-23T09:00:31;2.22;;;1.90;;
60867;SDS011;46702;48.370;10.794;2023-03-23T09:02:57;2.20;;;1.98;;
60867;SDS011;46702;48.370;10.794;2023-03-23T09:05:24;1.92;;;1.52;;
60867;SDS011;46702;48.370;10.794;2023-03-23T09:07:52;3.60;;;1.92;;
60867;SDS011;46702;48.370;10.794;2023-03-23T09:10:20;3.40;;;2.08;;
60867;SDS011;46702;48.370;10.794;2023-03-23T09:12:47;3.25;;;2.08;;
60867;SDS011;46702;48.370;10.794;2023-03-23T09:15:14;3.67;;;1.75;;
60867;SDS011;46702;48.370;10.794;2023-03-23T09:17:43;2.10;;;1.77;;
60867;SDS011;46702;48.370;10.794;2023-03-23T09:20:11;2.58;;;1.83;;
60867;SDS011;46702;48.370;10.794;2023-03-23T09:22:45;7.43;;;2.03;;
60867;SDS011;46702;48.370;10.794;2023-03-23T09:25:15;1.85;;;1.75;;
60867;SDS011;46702;48.370;10.794;2023-03-23T09:27:44;4.22;;;1.85;;
60867;SDS011;46702;48.370;10.794;2023-03-23T09:30:12;2.60;;;1.80;;
60867;SDS011;46702;48.370;10.794;2023-03-23T09:32:39;2.80;;;1.70;;
60867;SDS011;46702;48.370;10.794;2023-03-23T09:35:07;3.90;;;1.65;;
60867;SDS011;46702;48.370;10.794;2023-03-23T09:37:36;1.88;;;1.60;;
60867;SDS011;46702;48.370;10.794;2023-03-23T09:40:04;2.75;;;1.55;;
60867;SDS011;46702;48.370;10.794;2023-03-23T09:50:42;2.40;;;2.17;;
60867;SDS011;46702;48.370;10.794;2023-03-23T09:53:14;2.95;;;1.70;;
60867;SDS011;46702;48.370;10.794;2023-03-23T09:55:46;3.17;;;1.80;;
60867;SDS011;46702;48.370;10.794;2023-03-23T10:03:37;2.10;;;1.90;;
60867;SDS011;46702;48.370;10.794;2023-03-23T10:06:12;2.10;;;1.80;;
60867;SDS011;46702;48.370;10.794;2023-03-23T10:08:43;1.60;;;1.48;;
60867;SDS011;46702;48.370;10.794;2023-03-23T10:16:42;2.85;;;1.73;;
60867;SDS011;46702;48.370;10.794;2023-03-23T10:22:08;2.28;;;1.67;;
60867;SDS011;46702;48.370;10.794;2023-03-23T10:24:37;2.28;;;1.52;;
60867;SDS011;46702;48.370;10.794;2023-03-23T10:29:49;2.08;;;1.85;;
60867;SDS011;46702;48.370;10.794;2023-03-23T10:35:32;2.13;;;1.92;;
60867;SDS011;46702;48.370;10.794;2023-03-23T10:38:04;5.10;;;1.92;;
60867;SDS011;46702;48.370;10.794;2023-03-23T10:40:34;2.47;;;1.80;;
60867;SDS011;46702;48.370;10.794;2023-03-23T10:43:10;2.47;;;1.92;;
60867;SDS011;46702;48.370;10.794;2023-03-23T10:45:36;2.10;;;1.90;;
60867;SDS011;46702;48.370;10.794;2023-03-23T10:48:12;2.05;;;1.60;;
60867;SDS011;46702;48.370;10.794;2023-03-23T10:50:52;2.22;;;1.60;;
60867;SDS011;46702;48.370;10.794;2023-03-23T10:53:23;2.22;;;1.27;;
60867;SDS011;46702;48.370;10.794;2023-03-23T10:55:59;1.50;;;1.40;;
60867;SDS011;46702;48.370;10.794;2023-03-23T10:58:27;2.50;;;1.65;;
60867;SDS011;46702;48.370;10.794;2023-03-23T11:00:57;1.42;;;1.33;;
60867;SDS011;46702;48.370;10.794;2023-03-23T11:06:19;1.25;;;1.10;;
60867;SDS011;46702;48.370;10.794;2023-03-23T11:08:55;2.80;;;1.27;;
60867;SDS011;46702;48.370;10.794;2023-03-23T11:11:32;2.42;;;1.45;;
60867;SDS011;46702;48.370;10.794;2023-03-23T11:14:11;1.40;;;1.20;;
60867;SDS011;46702;48.370;10.794;2023-03-23T11:16:50;2.90;;;1.33;;
60867;SDS011;46702;48.370;10.794;2023-03-23T11:19:22;1.20;;;1.10;;
60867;SDS011;46702;48.370;10.794;2023-03-23T11:21:54;1.67;;;1.58;;
60867;SDS011;46702;48.370;10.794;2023-03-23T11:24:34;1.88;;;1.42;;
60867;SDS011;46702;48.370;10.794;2023-03-23T11:27:02;3.40;;;1.48;;
60867;SDS011;46702;48.370;10.794;2023-03-23T11:29:32;2.55;;;1.42;;
60867;SDS011;46702;48.370;10.794;2023-03-23T11:37:05;4.22;;;1.30;;
60867;SDS011;46702;48.370;10.794;2023-03-23T11:42:26;1.63;;;1.45;;
60867;SDS011;46702;48.370;10.794;2023-03-23T11:50:50;1.65;;;1.48;;
60867;SDS011;46702;48.370;10.794;2023-03-23T11:56:11;1.33;;;1.23;;
60867;SDS011;46702;48.370;10.794;2023-03-23T11:58:57;1.20;;;1.10;;
60867;SDS011;46702;48.370;10.794;2023-03-23T12:04:20;3.15;;;1.35;;
60867;SDS011;46702;48.370;10.794;2023-03-23T12:12:38;1.37;;;1.27;;
60867;SDS011;46702;48.370;10.794;2023-03-23T12:18:50;1.27;;;1.20;;
60867;SDS011;46702;48.370;10.794;2023-03-23T12:21:28;1.27;;;1.10;;
60867;SDS011;46702;48.370;10.794;2023-03-23T12:27:52;1.83;;;1.10;;
60867;SDS011;46702;48.370;10.794;2023-03-23T12:30:02;2.22;;;1.40;;
60867;SDS011;46702;48.370;10.794;2023-03-23T12:32:48;1.90;;;1.20;;
60867;SDS011;46702;48.370;10.794;2023-03-23T12:35:32;3.53;;;1.48;;
60867;SDS011;46702;48.370;10.794;2023-03-23T12:41:17;1.98;;;1.20;;
60867;SDS011;46702;48.370;10.794;2023-03-23T12:43:51;2.60;;;1.20;;
60867;SDS011;46702;48.370;10.794;2023-03-23T12:49:18;3.83;;;1.92;;
60867;SDS011;46702;48.370;10.794;2023-03-23T12:54:34;1.30;;;1.10;;
60867;SDS011;46702;48.370;10.794;2023-03-23T12:57:10;1.20;;;1.10;;
60867;SDS011;46702;48.370;10.794;2023-03-23T13:00:03;3.03;;;1.27;;
60867;SDS011;46702;48.370;10.794;2023-03-23T13:05:32;2.17;;;1.20;;
60867;SDS011;46702;48.370;10.794;2023-03-23T13:08:17;1.50;;;1.40;;
60867;SDS011;46702;48.370;10.794;2023-03-23T13:10:47;2.50;;;1.48;;
60867;SDS011;46702;48.370;10.794;2023-03-23T13:13:18;1.50;;;1.25;;
60867;SDS011;46702;48.370;10.794;2023-03-23T13:21:31;1.73;;;1.38;;
60867;SDS011;46702;48.370;10.794;2023-03-23T13:24:00;2.65;;;1.27;;
60867;SDS011;46702;48.370;10.794;2023-03-23T13:26:29;1.98;;;1.27;;
60867;SDS011;46702;48.370;10.794;2023-03-23T13:29:00;1.40;;;1.30;;
60867;SDS011;46702;48.370;10.794;2023-03-23T13:31:49;3.15;;;1.50;;
60867;SDS011;46702;48.370;10.794;2023-03-23T13:34:19;1.63;;;1.52;;
60867;SDS011;46702;48.370;10.794;2023-03-23T13:36:59;1.75;;;1.40;;
60867;SDS011;46702;48.370;10.794;2023-03-23T13:39:51;1.63;;;1.50;;
60867;SDS011;46702;48.370;10.794;2023-03-23T13:42:30;2.40;;;1.50;;
60867;SDS011;46702;48.370;10.794;2023-03-23T13:45:08;1.42;;;1.20;;
60867;SDS011;46702;48.370;10.794;2023-03-23T13:50:31;2.17;;;1.67;;
60867;SDS011;46702;48.370;10.794;2023-03-23T13:53:13;1.38;;;1.27;;
60867;SDS011;46702;48.370;10.794;2023-03-23T13:55:47;2.05;;;1.48;;
60867;SDS011;46702;48.370;10.794;2023-03-23T13:58:21;1.58;;;1.48;;
60867;SDS011;46702;48.370;10.794;2023-03-23T14:01:02;2.25;;;1.60;;
60867;SDS011;46702;48.370;10.794;2023-03-23T14:03:38;1.88;;;1.23;;
60867;SDS011;46702;48.370;10.794;2023-03-23T14:06:07;1.67;;;1.58;;
60867;SDS011;46702;48.370;10.794;2023-03-23T14:08:41;1.73;;;1.30;;
60867;SDS011;46702;48.370;10.794;2023-03-23T14:11:13;2.58;;;1.40;;
60867;SDS011;46702;48.370;10.794;2023-03-23T14:16:16;1.42;;;1.33;;
60867;SDS011;46702;48.370;10.794;2023-03-23T14:18:56;1.90;;;1.20;;
60867;SDS011;46702;48.370;10.794;2023-03-23T14:24:14;2.00;;;1.63;;
60867;SDS011;46702;48.370;10.794;2023-03-23T14:26:42;2.28;;;1.92;;
60867;SDS011;46702;48.370;10.794;2023-03-23T14:29:10;3.47;;;1.92;;
60867;SDS011;46702;48.370;10.794;2023-03-23T14:31:37;2.20;;;1.70;;
60867;SDS011;46702;48.370;10.794;2023-03-23T14:34:06;2.33;;;1.70;;
60867;SDS011;46702;48.370;10.794;2023-03-23T14:36:38;2.67;;;1.92;;
60867;SDS011;46702;48.370;10.794;2023-03-23T14:41:34;2.38;;;2.00;;
60867;SDS011;46702;48.370;10.794;2023-03-23T14:44:01;1.80;;;1.70;;
60867;SDS011;46702;48.370;10.794;2023-03-23T14:46:29;2.50;;;1.67;;
60867;SDS011;46702;48.370;10.794;2023-03-23T14:48:56;3.33;;;1.90;;
60867;SDS011;46702;48.370;10.794;2023-03-23T14:51:26;5.40;;;1.65;;
60867;SDS011;46702;48.370;10.794;2023-03-23T14:53:52;1.85;;;1.70;;
60867;SDS011;46702;48.370;10.794;2023-03-23T14:56:19;1.80;;;1.63;;
60867;SDS011;46702;48.370;10.794;2023-03-23T14:58:48;1.92;;;1.60;;
60867;SDS011;46702;48.370;10.794;2023-03-23T15:01:20;2.40;;;1.70;;
60867;SDS011;46702;48.370;10.794;2023-03-23T15:03:58;2.30;;;1.73;;
60867;SDS011;46702;48.370;10.794;2023-03-23T15:06:41;2.78;;;1.48;;
60867;SDS011;46702;48.370;10.794;2023-03-23T15:09:13;2.45;;;1.45;;
60867;SDS011;46702;48.370;10.794;2023-03-23T15:11:43;3.88;;;1.77;;
60867;SDS011;46702;48.370;10.794;2023-03-23T15:14:27;2.25;;;1.50;;
60867;SDS011;46702;48.370;10.794;2023-03-23T15:17:20;2.72;;;1.80;;
60867;SDS011;46702;48.370;10.794;2023-03-23T15:24:50;3.58;;;2.08;;
60867;SDS011;46702;48.370;10.794;2023-03-23T15:29:55;2.20;;;1.75;;
60867;SDS011;46702;48.370;10.794;2023-03-23T15:35:04;2.08;;;1.88;;
60867;SDS011;46702;48.370;10.794;2023-03-23T15:37:38;2.83;;;1.88;;
60867;SDS011;46702;48.370;10.794;2023-03-23T15:40:19;2.13;;;1.80;;
60867;SDS011;46702;48.370;10.794;2023-03-23T15:42:47;3.67;;;2.03;;
60867;SDS011;46702;48.370;10.794;2023-03-23T15:50:52;3.47;;;1.90;;
60867;SDS011;46702;48.370;10.794;2023-03-23T15:52:53;3.00;;;1.50;;
60867;SDS011;46702;48.370;10.794;2023-03-23T15:55:27;2.53;;;1.50;;
60867;SDS011;46702;48.370;10.794;2023-03-23T15:57:56;5.85;;;2.15;;
60867;SDS011;46702;48.370;10.794;2023-03-23T16:02:54;1.60;;;1.50;;
60867;SDS011;46702;48.370;10.794;2023-03-23T16:05:22;2.42;;;1.83;;
60867;SDS011;46702;48.370;10.794;2023-03-23T16:07:48;5.70;;;1.77;;
60867;SDS011;46702;48.370;10.794;2023-03-23T16:10:19;3.35;;;1.80;;
60867;SDS011;46702;48.370;10.794;2023-03-23T16:12:46;4.50;;;1.88;;
60867;SDS011;46702;48.370;10.794;2023-03-23T16:15:12;3.90;;;2.05;;
60867;SDS011;46702;48.370;10.794;2023-03-23T16:17:38;3.10;;;1.77;;
60867;SDS011;46702;48.370;10.794;2023-03-23T16:20:09;2.45;;;1.70;;
60867;SDS011;46702;48.370;10.794;2023-03-23T16:22:40;3.05;;;2.03;;
60867;SDS011;46702;48.370;10.794;2023-03-23T16:25:05;2.35;;;1.90;;
60867;SDS011;46702;48.370;10.794;2023-03-23T16:27:32;3.28;;;1.90;;
60867;SDS011;46702;48.370;10.794;2023-03-23T16:29:58;2.00;;;1.90;;
60867;SDS011;46702;48.370;10.794;2023-03-23T16:32:25;3.05;;;1.85;;
60867;SDS011;46702;48.370;10.794;2023-03-23T16:34:50;2.50;;;1.77;;
60867;SDS011;46702;48.370;10.794;2023-03-23T16:37:16;2.35;;;1.95;;
60867;SDS011;46702;48.370;10.794;2023-03-23T16:39:42;2.33;;;1.98;;
60867;SDS011;46702;48.370;10.794;2023-03-23T16:42:08;1.67;;;1.58;;
60867;SDS011;46702;48.370;10.794;2023-03-23T16:44:33;10.55;;;2.45;;
60867;SDS011;46702;48.370;10.794;2023-03-23T16:46:59;3.25;;;2.38;;
60867;SDS011;46702;48.370;10.794;2023-03-23T16:49:24;2.45;;;1.85;;
60867;SDS011;46702;48.370;10.794;2023-03-23T16:51:50;4.93;;;2.20;;
60867;SDS011;46702;48.370;10.794;2023-03-23T16:54:15;4.28;;;2.20;;
60867;SDS011;46702;48.370;10.794;2023-03-23T16:56:41;2.42;;;2.00;;